Time;durP1;ratioP1;P1;durP2;ratioP2;P2;SDS_P1;SDS_P2;PMS_P1;PMS_P2;Temp;Humidity;BMP_temperature;BMP_pressure;BME280_temperature;BME280_humidity;BME280_pressure;Samples;Min_cycle;Max_cycle;Signal;HPM_P1;HPM_P2
2023/07/03 00:01:51;;;;;;;1.50;1.40;;;21.60;72.60;;;;;;4820216;29;20194;-84
2023/07/03 00:04:23;;;;;;;2.03;1.83;;;21.50;72.50;;;;;;4806191;29;20647;-84
2023/07/03 00:06:49;;;;;;;1.67;1.58;;;21.60;72.50;;;;;;4823010;29;20218;-85
2023/07/03 00:09:15;;;;;;;2.00;1.75;;;21.60;72.60;;;;;;4809891;29;20231;-86
2023/07/03 00:11:41;;;;;;;1.63;1.52;;;21.60;72.60;;;;;;4823861;29;20166;-84
2023/07/03 00:14:07;;;;;;;2.08;1.70;;;21.60;72.50;;;;;;4824127;29;20540;-83
2023/07/03 00:16:32;;;;;;;1.50;1.40;;;21.60;72.50;;;;;;4808808;29;20179;-86
2023/07/03 00:18:58;;;;;;;1.60;1.50;;;21.50;72.40;;;;;;4823584;29;20527;-86
2023/07/03 00:21:25;;;;;;;1.60;1.50;;;21.60;72.50;;;;;;4823691;29;20531;-83
2023/07/03 00:23:51;;;;;;;1.70;1.60;;;21.60;72.50;;;;;;4809611;29;20581;-83
2023/07/03 00:26:17;;;;;;;1.77;1.48;;;21.60;72.50;;;;;;4808333;29;20321;-84
2023/07/03 00:28:43;;;;;;;1.70;1.60;;;21.60;72.50;;;;;;4808273;29;20206;-83
2023/07/03 00:31:09;;;;;;;1.70;1.60;;;21.60;72.40;;;;;;4823227;29;20210;-84
2023/07/03 00:33:35;;;;;;;2.00;1.80;;;21.60;72.50;;;;;;4823305;29;20532;-86
2023/07/03 00:36:01;;;;;;;1.80;1.63;;;21.60;72.40;;;;;;4808144;29;20514;-85
2023/07/03 00:38:27;;;;;;;1.70;1.58;;;21.60;72.50;;;;;;4823549;29;20171;-86
2023/07/03 00:40:52;;;;;;;1.60;1.50;;;21.60;72.40;;;;;;4809278;29;20266;-83
2023/07/03 00:43:18;;;;;;;2.10;1.80;;;21.60;72.40;;;;;;4809438;29;20190;-85
2023/07/03 00:45:46;;;;;;;2.03;1.70;;;21.60;72.40;;;;;;4809444;29;20167;-83
2023/07/03 00:48:12;;;;;;;2.33;1.65;;;21.60;72.40;;;;;;4807995;29;20597;-83
2023/07/03 00:50:38;;;;;;;2.42;1.85;;;21.60;72.30;;;;;;4808034;29;20224;-82
2023/07/03 00:53:04;;;;;;;1.70;1.50;;;21.60;72.30;;;;;;4822932;29;20159;-84
2023/07/03 00:55:30;;;;;;;1.70;1.45;;;21.60;72.20;;;;;;4793309;29;20177;-85
2023/07/03 00:57:56;;;;;;;1.70;1.60;;;21.60;72.30;;;;;;4823202;29;20171;-84
2023/07/03 01:00:25;;;;;;;1.63;1.52;;;21.50;72.30;;;;;;4822860;29;20284;-82
2023/07/03 01:02:58;;;;;;;1.92;1.73;;;21.50;72.30;;;;;;4792632;29;20223;-86
2023/07/03 01:05:28;;;;;;;2.35;1.70;;;21.60;72.30;;;;;;4809079;29;20162;-83
2023/07/03 01:07:54;;;;;;;1.67;1.58;;;21.60;72.30;;;;;;4807532;29;20205;-84
2023/07/03 01:10:21;;;;;;;1.63;1.52;;;21.60;72.20;;;;;;4807527;29;20178;-84
2023/07/03 01:12:50;;;;;;;1.85;1.60;;;21.50;72.20;;;;;;4792616;29;20171;-82
2023/07/03 01:15:21;;;;;;;2.05;1.85;;;21.60;72.20;;;;;;4822534;29;20196;-84
2023/07/03 01:17:47;;;;;;;1.95;1.50;;;21.60;72.10;;;;;;4822812;29;20190;-83
2023/07/03 01:20:18;;;;;;;1.73;1.63;;;21.60;72.30;;;;;;4822620;29;20221;-86
2023/07/03 01:23:12;;;;;;;2.05;1.67;;;21.60;72.30;;;;;;4821822;29;20252;-83
2023/07/03 01:25:39;;;;;;;1.92;1.73;;;21.60;72.20;;;;;;4822737;29;20194;-85
2023/07/03 01:28:06;;;;;;;1.55;1.45;;;21.50;72.10;;;;;;4822469;29;20190;-84
2023/07/03 01:30:32;;;;;;;1.67;1.30;;;21.60;72.10;;;;;;4792251;29;20166;-85
2023/07/03 01:32:58;;;;;;;1.73;1.60;;;21.60;72.10;;;;;;4808296;29;20229;-85
2023/07/03 01:35:28;;;;;;;2.00;1.80;;;21.60;72.10;;;;;;4822397;29;20296;-86
2023/07/03 01:37:54;;;;;;;2.00;1.80;;;21.60;72.00;;;;;;4821748;29;20194;-82
2023/07/03 01:40:21;;;;;;;1.90;1.70;;;21.60;72.00;;;;;;4808379;29;20185;-85
2023/07/03 01:42:47;;;;;;;1.75;1.60;;;21.60;72.00;;;;;;4808590;29;20167;-86
2023/07/03 01:45:13;;;;;;;1.92;1.60;;;21.60;72.00;;;;;;4792054;29;20249;-85
2023/07/03 01:47:39;;;;;;;1.90;1.70;;;21.60;72.00;;;;;;4822277;29;20679;-85
2023/07/03 01:50:09;;;;;;;1.85;1.70;;;21.60;72.00;;;;;;4791971;29;20554;-85
2023/07/03 01:52:38;;;;;;;1.60;1.50;;;21.60;72.80;;;;;;4822161;29;20615;-86
2023/07/03 01:55:20;;;;;;;1.55;1.45;;;21.60;72.00;;;;;;4808202;29;20170;-84
2023/07/03 01:57:56;;;;;;;1.70;1.60;;;21.60;72.00;;;;;;4808348;29;20167;-82
2023/07/03 02:00:26;;;;;;;1.98;1.77;;;21.60;72.00;;;;;;4806637;29;20179;-84
2023/07/03 02:02:52;;;;;;;1.65;1.55;;;21.60;71.90;;;;;;4791679;29;20183;-83
2023/07/03 02:05:22;;;;;;;1.70;1.60;;;21.60;72.00;;;;;;4808044;29;20174;-86
2023/07/03 02:07:48;;;;;;;1.85;1.75;;;21.60;72.00;;;;;;4807816;29;20281;-85
2023/07/03 02:10:14;;;;;;;1.90;1.60;;;21.60;72.00;;;;;;4821951;29;20155;-86
2023/07/03 02:12:45;;;;;;;1.83;1.70;;;21.60;71.90;;;;;;4821707;29;20619;-84
2023/07/03 02:15:11;;;;;;;2.35;1.90;;;21.60;72.00;;;;;;4821756;29;20174;-87
2023/07/03 02:17:37;;;;;;;2.00;1.80;;;21.60;71.90;;;;;;4808034;29;20523;-87
2023/07/03 02:20:04;;;;;;;2.00;1.80;;;21.60;72.00;;;;;;4807630;29;20167;-84
2023/07/03 02:22:31;;;;;;;1.95;1.60;;;21.60;71.90;;;;;;4791417;29;20198;-87
2023/07/03 02:24:57;;;;;;;2.00;1.80;;;21.50;71.90;;;;;;4821535;29;20163;-84
2023/07/03 02:27:23;;;;;;;3.03;1.80;;;21.60;71.90;;;;;;4790992;29;20255;-85
2023/07/03 02:29:49;;;;;;;2.13;1.92;;;21.60;71.80;;;;;;4821550;29;20163;-85
2023/07/03 02:32:15;;;;;;;2.00;1.67;;;21.50;71.80;;;;;;4788276;30;20238;-84
2023/07/03 02:34:41;;;;;;;2.35;1.80;;;21.60;71.80;;;;;;4818399;29;20242;-84
2023/07/03 02:37:09;;;;;;;1.88;1.60;;;21.50;71.80;;;;;;4789545;29;20210;-85
2023/07/03 02:39:35;;;;;;;1.60;1.50;;;21.60;71.90;;;;;;4818247;29;20254;-85
2023/07/03 02:42:01;;;;;;;1.73;1.63;;;21.60;71.90;;;;;;4818494;29;20534;-86
2023/07/03 02:44:27;;;;;;;2.00;1.70;;;21.60;71.90;;;;;;4788082;30;20179;-86
2023/07/03 02:46:53;;;;;;;2.05;1.70;;;21.60;71.80;;;;;;4818047;29;20563;-86
2023/07/03 02:49:20;;;;;;;2.13;1.90;;;21.60;71.80;;;;;;4789131;29;20172;-84
2023/07/03 02:51:46;;;;;;;2.00;1.75;;;21.60;71.80;;;;;;4818495;29;20164;-86
2023/07/03 02:54:12;;;;;;;1.88;1.67;;;21.60;71.70;;;;;;4789270;29;20182;-84
2023/07/03 02:56:37;;;;;;;1.90;1.70;;;21.60;71.60;;;;;;4803416;29;20225;-85
2023/07/03 02:59:03;;;;;;;1.67;1.58;;;21.60;71.70;;;;;;4818081;29;20164;-86
2023/07/03 03:01:30;;;;;;;2.00;1.67;;;21.60;71.70;;;;;;4787901;30;20632;-85
2023/07/03 03:03:58;;;;;;;2.15;1.73;;;21.60;71.60;;;;;;4818039;29;20744;-87
2023/07/03 03:06:24;;;;;;;2.05;1.60;;;21.60;71.50;;;;;;4787601;30;20175;-86
2023/07/03 03:08:50;;;;;;;1.60;1.35;;;21.60;71.50;;;;;;4788797;29;20171;-85
2023/07/03 03:11:16;;;;;;;1.95;1.50;;;21.60;71.50;;;;;;4787658;30;20310;-84
2023/07/03 03:13:41;;;;;;;1.92;1.73;;;21.60;71.50;;;;;;4787550;30;20259;-87
2023/07/03 03:16:07;;;;;;;1.83;1.67;;;21.60;71.50;;;;;;4802558;29;20258;-84
2023/07/03 03:18:33;;;;;;;1.95;1.65;;;21.60;71.50;;;;;;4787458;30;20195;-86
2023/07/03 03:20:59;;;;;;;2.08;1.70;;;21.60;71.50;;;;;;4787405;30;20274;-86
2023/07/03 03:23:25;;;;;;;2.20;1.95;;;21.60;71.50;;;;;;4817929;29;20176;-84
2023/07/03 03:25:51;;;;;;;1.63;1.40;;;21.60;71.40;;;;;;4788672;29;20175;-84
2023/07/03 03:28:17;;;;;;;1.60;1.50;;;21.60;71.40;;;;;;4788681;29;20559;-86
2023/07/03 03:30:43;;;;;;;2.13;1.60;;;21.60;72.20;;;;;;4817575;29;20706;-86
2023/07/03 03:33:09;;;;;;;1.98;1.77;;;21.60;71.20;;;;;;4802109;29;20239;-85
2023/07/03 03:35:35;;;;;;;1.60;1.50;;;21.60;71.20;;;;;;4802853;29;20178;-84
2023/07/03 03:38:01;;;;;;;2.30;1.58;;;21.60;71.20;;;;;;4802533;29;20262;-84
2023/07/03 03:40:27;;;;;;;2.08;1.88;;;21.70;71.10;;;;;;4817097;29;20175;-85
2023/07/03 03:42:53;;;;;;;1.73;1.63;;;21.70;71.10;;;;;;4817601;29;20184;-82
2023/07/03 03:45:19;;;;;;;2.28;1.73;;;21.70;71.10;;;;;;4787124;30;20233;-85
2023/07/03 03:47:46;;;;;;;1.73;1.50;;;21.70;71.20;;;;;;4787352;30;20207;-84
2023/07/03 03:50:12;;;;;;;1.67;1.58;;;21.70;71.10;;;;;;4788293;29;20170;-82
2023/07/03 03:52:38;;;;;;;1.83;1.58;;;21.70;71.10;;;;;;4788243;29;20246;-82
2023/07/03 03:55:05;;;;;;;2.10;1.52;;;21.70;71.10;;;;;;4802054;29;20623;-84
2023/07/03 03:57:30;;;;;;;1.95;1.70;;;21.60;71.10;;;;;;4786989;30;20175;-86
2023/07/03 03:59:56;;;;;;;1.80;1.60;;;21.60;71.00;;;;;;4817427;29;20190;-83
2023/07/03 04:02:22;;;;;;;1.88;1.67;;;21.60;71.00;;;;;;4817688;29;20246;-84
2023/07/03 04:04:52;;;;;;;2.00;1.67;;;21.70;71.10;;;;;;4802304;29;20258;-85
2023/07/03 04:07:18;;;;;;;1.98;1.77;;;21.70;71.00;;;;;;4817067;29;20214;-86
2023/07/03 04:09:44;;;;;;;2.10;1.80;;;21.70;71.00;;;;;;4788431;29;20164;-85
2023/07/03 04:12:10;;;;;;;2.13;1.70;;;21.70;70.90;;;;;;4817314;29;20167;-86
2023/07/03 04:14:38;;;;;;;2.83;1.75;;;21.70;70.90;;;;;;4788537;29;20160;-85
2023/07/03 04:17:09;;;;;;;2.08;1.65;;;21.70;71.00;;;;;;4802218;29;20171;-86
2023/07/03 04:19:35;;;;;;;2.03;1.83;;;21.70;70.90;;;;;;4816493;29;20202;-86
2023/07/03 04:22:01;;;;;;;1.90;1.70;;;21.70;70.80;;;;;;4788972;29;20163;-84
2023/07/03 04:24:26;;;;;;;1.60;1.50;;;21.70;70.70;;;;;;4817523;29;20243;-84
2023/07/03 04:26:54;;;;;;;2.00;1.73;;;21.70;70.90;;;;;;4802375;29;20199;-84
2023/07/03 04:29:21;;;;;;;1.67;1.58;;;21.70;70.90;;;;;;4817042;29;20620;-84
2023/07/03 04:31:46;;;;;;;2.38;1.88;;;21.70;70.90;;;;;;4787044;30;20250;-85
2023/07/03 04:34:16;;;;;;;1.77;1.67;;;21.70;70.90;;;;;;4802179;29;20183;-84
2023/07/03 04:36:43;;;;;;;1.95;1.75;;;21.60;70.90;;;;;;4816625;29;20192;-84
2023/07/03 04:39:12;;;;;;;2.30;1.67;;;21.70;71.00;;;;;;4817236;29;20172;-86
2023/07/03 04:41:38;;;;;;;1.95;1.50;;;21.70;71.00;;;;;;4801644;29;20254;-83
2023/07/03 04:44:06;;;;;;;1.90;1.55;;;21.60;70.90;;;;;;4787497;30;20184;-83
2023/07/03 04:46:33;;;;;;;1.92;1.73;;;21.60;70.90;;;;;;4817229;29;20156;-85
2023/07/03 04:49:00;;;;;;;1.80;1.70;;;21.70;70.90;;;;;;4817624;29;20614;-83
2023/07/03 04:51:30;;;;;;;1.85;1.70;;;21.70;70.90;;;;;;4791083;29;20156;-86
2023/07/03 04:53:57;;;;;;;1.92;1.73;;;21.60;70.90;;;;;;4819605;29;20156;-84
2023/07/03 04:56:24;;;;;;;2.63;1.90;;;21.70;70.80;;;;;;4790579;30;20236;-85
2023/07/03 04:58:50;;;;;;;1.75;1.60;;;21.70;70.80;;;;;;4820378;29;20168;-86
2023/07/03 05:01:16;;;;;;;1.83;1.70;;;21.70;70.70;;;;;;4820444;29;20568;-84
2023/07/03 05:03:46;;;;;;;1.60;1.50;;;21.70;70.70;;;;;;4805439;29;20225;-83
2023/07/03 05:06:12;;;;;;;1.63;1.50;;;21.60;70.70;;;;;;4819722;29;20651;-86
2023/07/03 05:08:38;;;;;;;2.08;1.88;;;21.70;70.60;;;;;;4805738;29;20218;-84
2023/07/03 05:11:04;;;;;;;2.05;1.85;;;21.60;70.60;;;;;;4820436;29;20219;-87
2023/07/03 05:13:34;;;;;;;2.03;1.73;;;21.70;70.70;;;;;;4805103;29;20536;-88
2023/07/03 05:16:04;;;;;;;1.77;1.63;;;21.70;70.70;;;;;;4819468;29;20259;-84
2023/07/03 05:18:30;;;;;;;2.10;1.70;;;21.70;70.70;;;;;;4819771;29;20199;-85
2023/07/03 05:21:01;;;;;;;2.13;1.70;;;21.60;70.70;;;;;;4820256;29;20542;-87
2023/07/03 05:23:32;;;;;;;1.70;1.60;;;21.70;70.70;;;;;;4804622;29;20187;-86
2023/07/03 05:25:58;;;;;;;1.92;1.73;;;21.60;70.70;;;;;;4819614;29;20195;-85
2023/07/03 05:28:24;;;;;;;1.95;1.70;;;21.60;70.70;;;;;;4820198;29;20199;-84
2023/07/03 05:30:55;;;;;;;1.88;1.42;;;21.70;70.70;;;;;;4805160;29;20640;-85
2023/07/03 05:33:20;;;;;;;2.80;1.90;;;21.70;70.70;;;;;;4805359;29;20168;-84
2023/07/03 05:35:50;;;;;;;1.60;1.50;;;21.70;70.50;;;;;;4804706;29;20254;-84
2023/07/03 05:38:17;;;;;;;1.92;1.58;;;21.70;70.60;;;;;;4789222;30;20202;-86
2023/07/03 05:40:44;;;;;;;1.83;1.52;;;21.70;70.20;;;;;;4789492;30;20179;-87
2023/07/03 05:43:10;;;;;;;1.58;1.48;;;21.70;69.40;;;;;;4804313;29;20167;-87
2023/07/03 05:45:36;;;;;;;1.67;1.55;;;21.60;69.30;;;;;;4804443;29;20694;-84
2023/07/03 05:48:02;;;;;;;1.60;1.50;;;21.60;69.20;;;;;;4789080;30;20211;-85
2023/07/03 05:50:28;;;;;;;1.55;1.42;;;21.50;69.20;;;;;;4804226;29;20239;-85
2023/07/03 05:52:54;;;;;;;1.30;1.20;;;21.50;69.20;;;;;;4804326;29;20194;-84
2023/07/03 05:55:20;;;;;;;1.80;1.52;;;21.50;69.20;;;;;;4788875;30;20655;-83
2023/07/03 05:57:46;;;;;;;1.33;1.23;;;21.40;69.20;;;;;;4789277;30;20186;-83
2023/07/03 06:00:13;;;;;;;1.50;1.40;;;21.30;69.40;;;;;;4773883;30;20671;-84
2023/07/03 06:02:41;;;;;;;1.55;1.40;;;21.30;69.60;;;;;;4804779;29;20186;-86
2023/07/03 06:05:08;;;;;;;1.70;1.25;;;21.20;69.80;;;;;;4805321;29;20160;-83
2023/07/03 06:07:34;;;;;;;1.48;1.38;;;21.30;69.40;;;;;;4791028;30;20655;-86
2023/07/03 06:10:00;;;;;;;1.60;1.50;;;21.20;69.90;;;;;;4804558;29;20174;-86
2023/07/03 06:12:30;;;;;;;1.30;1.20;;;21.20;69.80;;;;;;4792540;30;20176;-83
2023/07/03 06:15:00;;;;;;;1.65;1.50;;;21.10;70.00;;;;;;4792983;30;20636;-84
2023/07/03 06:17:30;;;;;;;1.75;1.60;;;21.20;69.90;;;;;;4807912;29;20240;-84
2023/07/03 06:19:56;;;;;;;1.55;1.45;;;21.20;70.10;;;;;;4806181;29;20203;-86
2023/07/03 06:22:22;;;;;;;1.60;1.50;;;21.10;70.00;;;;;;4792081;30;20636;-84
2023/07/03 06:24:48;;;;;;;1.65;1.20;;;21.10;70.10;;;;;;4789309;30;20188;-87
2023/07/03 06:27:14;;;;;;;2.15;1.35;;;21.00;70.10;;;;;;4803269;29;20266;-85
2023/07/03 06:29:40;;;;;;;1.85;1.67;;;21.00;70.20;;;;;;4790101;30;20195;-82
2023/07/03 06:32:11;;;;;;;1.50;1.40;;;21.00;70.10;;;;;;4813237;29;20219;-86
2023/07/03 06:34:37;;;;;;;1.38;1.27;;;21.00;70.10;;;;;;4821210;29;20208;-88
2023/07/03 06:37:15;;;;;;;;;;;;;;;;;;;;;
2023/07/03 06:39:45;;;;;;;1.30;1.20;;;21.00;70.30;;;;;;4799514;29;20209;-84
2023/07/03 06:42:11;;;;;;;1.75;1.40;;;21.00;69.90;;;;;;4808822;29;20745;-85
2023/07/03 06:44:43;;;;;;;1.40;1.30;;;21.00;69.90;;;;;;4793407;29;20183;-85
2023/07/03 06:47:09;;;;;;;1.55;1.45;;;21.00;70.10;;;;;;4806188;29;20210;-84
2023/07/03 06:49:36;;;;;;;1.30;1.20;;;20.90;70.00;;;;;;4807491;29;20179;-83
2023/07/03 06:52:06;;;;;;;1.63;1.50;;;20.90;70.10;;;;;;4823556;29;20182;-83
2023/07/03 06:54:36;;;;;;;1.75;1.63;;;21.00;70.30;;;;;;4791331;29;20256;-85
2023/07/03 06:57:03;;;;;;;1.60;1.50;;;20.90;70.10;;;;;;4806342;29;20190;-85
2023/07/03 06:59:29;;;;;;;2.13;1.60;;;20.90;70.10;;;;;;4808284;29;20167;-85
2023/07/03 07:01:58;;;;;;;1.63;1.52;;;20.90;70.10;;;;;;4822819;29;20171;-84
2023/07/03 07:04:30;;;;;;;1.40;1.30;;;20.90;70.10;;;;;;4821356;29;20285;-85
2023/07/03 07:07:04;;;;;;;1.55;1.30;;;20.90;70.20;;;;;;4821240;29;20223;-83
2023/07/03 07:09:30;;;;;;;1.45;1.35;;;20.90;70.30;;;;;;4821409;29;20198;-84
2023/07/03 07:11:56;;;;;;;1.55;1.45;;;20.90;70.10;;;;;;4806625;29;20186;-83
2023/07/03 07:14:25;;;;;;;3.15;1.42;;;20.90;70.00;;;;;;4821208;29;20523;-82
2023/07/03 07:16:51;;;;;;;1.60;1.50;;;20.80;69.80;;;;;;4823322;29;20566;-84
2023/07/03 07:19:17;;;;;;;1.80;1.35;;;20.90;70.00;;;;;;4809119;29;20174;-85
2023/07/03 07:21:43;;;;;;;1.40;1.30;;;20.80;70.00;;;;;;4823276;29;20202;-84
2023/07/03 07:24:16;;;;;;;1.52;1.42;;;20.80;70.20;;;;;;4824305;29;20180;-84
2023/07/03 07:26:42;;;;;;;2.55;1.40;;;20.80;70.00;;;;;;4807674;29;20202;-84
2023/07/03 07:29:11;;;;;;;1.65;1.42;;;20.90;70.00;;;;;;4821979;29;20581;-85
2023/07/03 07:31:37;;;;;;;1.25;1.15;;;20.80;70.10;;;;;;4821570;29;20231;-85
2023/07/03 07:34:11;;;;;;;1.45;1.35;;;20.80;69.50;;;;;;4807406;29;20594;-84
2023/07/03 07:36:38;;;;;;;1.65;1.45;;;20.80;69.80;;;;;;4791868;29;20243;-85
2023/07/03 07:39:04;;;;;;;1.48;1.33;;;20.80;70.00;;;;;;4823817;29;20194;-83
2023/07/03 07:41:30;;;;;;;1.27;1.17;;;20.80;69.90;;;;;;4809297;29;20554;-84
2023/07/03 07:43:58;;;;;;;3.63;1.67;;;20.80;70.00;;;;;;4822990;29;20254;-84
2023/07/03 07:46:30;;;;;;;1.83;1.42;;;20.80;69.80;;;;;;4823213;29;20159;-85
2023/07/03 07:48:57;;;;;;;1.55;1.40;;;20.80;69.80;;;;;;4806236;29;20222;-84
2023/07/03 07:51:23;;;;;;;1.67;1.38;;;20.90;70.00;;;;;;4806423;29;20179;-84
2023/07/03 07:53:50;;;;;;;1.83;1.27;;;20.90;69.80;;;;;;4806674;29;20547;-86
2023/07/03 07:56:21;;;;;;;1.42;1.20;;;20.80;69.70;;;;;;4807895;29;20182;-85
2023/07/03 07:58:50;;;;;;;1.50;1.30;;;20.80;69.70;;;;;;4806149;29;20217;-84
2023/07/03 08:01:19;;;;;;;2.13;1.40;;;20.80;69.60;;;;;;4806288;29;20194;-85
2023/07/03 08:03:49;;;;;;;1.48;1.38;;;20.80;69.50;;;;;;4806879;29;20224;-86
2023/07/03 08:06:20;;;;;;;1.48;1.20;;;20.80;69.50;;;;;;4806290;29;20222;-85
2023/07/03 08:08:49;;;;;;;1.52;1.42;;;20.70;69.30;;;;;;4805573;29;20291;-83
2023/07/03 08:11:20;;;;;;;1.67;1.30;;;20.80;69.50;;;;;;4805795;29;20258;-87
2023/07/03 08:13:50;;;;;;;1.80;1.30;;;20.80;69.30;;;;;;4805650;29;20197;-86
2023/07/03 08:16:20;;;;;;;2.35;1.50;;;20.80;69.20;;;;;;4806117;29;20190;-85
2023/07/03 08:18:49;;;;;;;3.08;1.30;;;20.80;69.10;;;;;;4805886;29;20547;-83
2023/07/03 08:21:18;;;;;;;1.52;1.27;;;20.80;69.00;;;;;;4813081;29;20195;-83
2023/07/03 08:23:48;;;;;;;1.20;1.10;;;20.70;69.00;;;;;;4814802;29;20194;-85
2023/07/03 08:26:24;;;;;;;1.48;1.38;;;20.80;68.80;;;;;;4831769;29;20195;-84
2023/07/03 08:28:53;;;;;;;1.50;1.40;;;20.80;68.80;;;;;;4816254;29;20218;-83
2023/07/03 08:31:18;;;;;;;2.00;1.42;;;20.80;69.80;;;;;;4817867;29;20226;-83
2023/07/03 08:33:52;;;;;;;2.45;1.60;;;20.80;68.80;;;;;;4815055;29;20239;-86
2023/07/03 08:36:22;;;;;;;1.27;1.17;;;20.90;68.50;;;;;;4830606;29;20293;-82
2023/07/03 08:38:49;;;;;;;1.77;1.33;;;20.80;68.50;;;;;;4815434;29;20187;-84
2023/07/03 08:41:17;;;;;;;3.63;1.80;;;20.90;68.60;;;;;;4816398;29;20214;-84
2023/07/03 08:43:48;;;;;;;2.25;1.48;;;20.80;68.60;;;;;;4832512;29;20228;-84
2023/07/03 08:46:22;;;;;;;2.40;1.40;;;20.90;68.40;;;;;;4817298;29;20277;-84
2023/07/03 08:48:51;;;;;;;3.40;1.55;;;20.90;68.20;;;;;;4801097;29;20316;-84
2023/07/03 08:51:19;;;;;;;4.28;1.75;;;20.80;68.50;;;;;;4801561;29;20196;-84
2023/07/03 08:53:51;;;;;;;2.58;1.27;;;20.90;68.10;;;;;;4802444;29;20205;-84
2023/07/03 08:56:25;;;;;;;8.70;1.80;;;20.90;68.10;;;;;;4788577;29;20202;-83
2023/07/03 08:58:54;;;;;;;1.65;1.20;;;20.80;68.70;;;;;;4818422;29;20599;-84
2023/07/03 09:01:44;;;;;;;4.82;1.63;;;20.80;68.60;;;;;;4817752;29;20245;-84
2023/07/03 09:04:42;;;;;;;1.45;1.23;;;20.70;68.70;;;;;;4786928;29;20259;-84
2023/07/03 09:07:15;;;;;;;2.83;1.42;;;20.80;68.20;;;;;;4818614;29;20624;-84
2023/07/03 09:09:52;;;;;;;3.35;1.20;;;20.70;68.30;;;;;;4817647;29;20278;-86
2023/07/03 09:12:42;;;;;;;1.88;1.27;;;20.70;68.20;;;;;;4802508;29;20239;-84
2023/07/03 09:15:18;;;;;;;1.85;1.38;;;20.70;68.20;;;;;;4818220;29;20187;-85
2023/07/03 09:17:47;;;;;;;2.95;1.33;;;20.70;68.00;;;;;;4811355;29;20201;-84
2023/07/03 09:20:15;;;;;;;1.20;1.10;;;20.70;68.30;;;;;;4825789;29;20193;-85
2023/07/03 09:22:46;;;;;;;3.58;1.42;;;20.70;68.10;;;;;;4809822;29;20190;-86
2023/07/03 09:25:30;;;;;;;3.08;1.45;;;20.70;68.30;;;;;;4795559;29;20278;-85
2023/07/03 09:28:01;;;;;;;4.20;1.50;;;20.70;68.40;;;;;;4796316;29;20250;-84
2023/07/03 09:30:33;;;;;;;1.63;1.50;;;20.70;68.40;;;;;;4812297;29;20198;-84
2023/07/03 09:33:06;;;;;;;6.32;1.60;;;20.70;68.50;;;;;;4813373;29;20227;-86
2023/07/03 09:35:35;;;;;;;3.90;1.73;;;20.70;68.50;;;;;;4813202;29;20214;-83
2023/07/03 09:38:04;;;;;;;5.07;1.63;;;20.60;69.00;;;;;;4812689;29;20258;-84
2023/07/03 09:40:37;;;;;;;3.92;1.38;;;20.70;68.50;;;;;;4828908;29;20182;-84
2023/07/03 09:43:03;;;;;;;4.65;1.45;;;20.70;68.80;;;;;;4813540;29;20319;-84
2023/07/03 09:45:35;;;;;;;6.22;1.50;;;20.60;68.50;;;;;;4813288;29;20272;-84
2023/07/03 09:48:23;;;;;;;6.30;1.77;;;20.60;68.80;;;;;;4796360;29;20219;-84
2023/07/03 09:50:49;;;;;;;4.38;1.33;;;20.60;68.80;;;;;;4796689;29;20642;-84
2023/07/03 09:53:18;;;;;;;4.70;1.65;;;20.60;68.70;;;;;;4811123;29;20251;-87
2023/07/03 09:55:44;;;;;;;3.33;1.80;;;20.70;68.50;;;;;;4812142;29;20244;-84
2023/07/03 09:58:11;;;;;;;2.38;1.30;;;20.60;68.90;;;;;;4812546;29;20181;-85
2023/07/03 10:00:43;;;;;;;6.10;1.50;;;20.60;68.70;;;;;;4826637;29;20198;-84
2023/07/03 10:03:09;;;;;;;3.90;1.50;;;20.60;68.50;;;;;;4825286;29;20167;-86
2023/07/03 10:05:35;;;;;;;2.85;1.50;;;20.70;69.20;;;;;;4811653;29;20163;-86
2023/07/03 10:08:05;;;;;;;4.32;1.50;;;20.60;68.90;;;;;;4810033;29;20195;-86
2023/07/03 10:10:36;;;;;;;3.05;1.52;;;20.70;69.00;;;;;;4808473;29;20210;-84
2023/07/03 10:13:16;;;;;;;3.30;1.67;;;20.60;68.90;;;;;;4808553;29;20191;-84
2023/07/03 10:15:51;;;;;;;5.03;1.40;;;20.60;68.90;;;;;;4823732;29;20162;-86
2023/07/03 10:18:25;;;;;;;3.28;1.42;;;20.60;69.10;;;;;;4823264;29;20202;-84
2023/07/03 10:20:51;;;;;;;7.53;1.80;;;20.70;69.00;;;;;;4823737;29;20175;-84
2023/07/03 10:23:25;;;;;;;3.25;1.67;;;20.70;68.90;;;;;;4792664;29;20177;-86
2023/07/03 10:26:13;;;;;;;7.57;1.80;;;20.70;68.90;;;;;;4822610;29;20234;-83
2023/07/03 10:28:45;;;;;;;4.00;1.40;;;20.60;68.80;;;;;;4806462;29;20228;-85
2023/07/03 10:31:15;;;;;;;3.78;1.60;;;20.70;68.90;;;;;;4807349;29;20178;-83
2023/07/03 10:33:48;;;;;;;2.35;1.55;;;20.70;68.40;;;;;;4806829;29;20194;-83
2023/07/03 10:36:19;;;;;;;3.58;1.40;;;20.70;69.00;;;;;;4806238;29;20218;-85
2023/07/03 10:39:11;;;;;;;4.20;1.60;;;20.70;68.50;;;;;;4822594;29;20195;-84
2023/07/03 10:41:44;;;;;;;6.45;1.85;;;20.70;68.80;;;;;;4818262;29;20171;-86
2023/07/03 10:44:17;;;;;;;2.78;1.58;;;20.70;68.90;;;;;;4822380;29;20175;-83
2023/07/03 10:47:12;;;;;;;4.40;1.50;;;20.60;68.90;;;;;;4821945;29;20178;-86
2023/07/03 10:49:39;;;;;;;3.25;1.20;;;20.70;68.90;;;;;;4818745;29;20186;-86
2023/07/03 10:52:23;;;;;;;3.35;1.50;;;20.70;68.90;;;;;;4795989;29;20182;-83
2023/07/03 10:55:04;;;;;;;4.18;1.52;;;20.70;69.00;;;;;;4810034;29;20278;-86
2023/07/03 10:57:38;;;;;;;1.58;1.20;;;20.70;68.90;;;;;;4810139;29;20178;-86
2023/07/03 11:00:12;;;;;;;1.75;1.23;;;20.70;68.80;;;;;;4808707;29;20189;-84
2023/07/03 11:02:59;;;;;;;1.50;1.05;;;20.70;68.50;;;;;;4824968;29;20195;-84
2023/07/03 11:05:34;;;;;;;1.80;1.02;;;20.70;68.50;;;;;;4798805;29;20209;-82
2023/07/03 11:08:20;;;;;;;3.28;1.45;;;20.80;68.60;;;;;;4812815;29;20202;-83
2023/07/03 11:10:55;;;;;;;2.60;1.50;;;20.70;68.50;;;;;;4811687;29;20190;-83
2023/07/03 11:13:40;;;;;;;2.80;1.20;;;20.70;69.50;;;;;;4813924;29;20170;-84
2023/07/03 11:16:13;;;;;;;2.40;1.25;;;20.70;68.50;;;;;;4786549;29;20186;-82
2023/07/03 11:18:55;;;;;;;1.85;1.40;;;20.70;68.80;;;;;;4812010;29;20733;-87
2023/07/03 11:21:42;;;;;;;5.55;1.20;;;20.80;68.90;;;;;;4811236;29;20194;-84
2023/07/03 11:24:28;;;;;;;3.65;1.25;;;20.80;69.10;;;;;;4794970;29;20182;-85
2023/07/03 11:27:27;;;;;;;3.13;1.60;;;20.70;69.00;;;;;;4808180;29;20173;-83
2023/07/03 11:30:02;;;;;;;1.73;1.20;;;20.70;68.90;;;;;;4768116;29;20198;-84
2023/07/03 11:32:34;;;;;;;1.50;0.93;;;20.80;69.10;;;;;;4811376;29;20258;-85
2023/07/03 11:35:06;;;;;;;3.25;1.40;;;20.80;69.00;;;;;;4807043;29;20203;-85
2023/07/03 11:37:49;;;;;;;1.60;1.30;;;20.70;69.00;;;;;;4793803;29;20201;-83
2023/07/03 11:40:33;;;;;;;2.50;1.20;;;20.70;69.00;;;;;;4807741;29;20529;-83
2023/07/03 11:43:22;;;;;;;2.42;1.10;;;20.70;68.90;;;;;;4809893;29;20197;-85
2023/07/03 11:46:05;;;;;;;2.38;1.20;;;20.70;68.80;;;;;;4793048;29;20223;-85
2023/07/03 11:48:48;;;;;;;0.90;0.90;;;20.70;68.60;;;;;;4808607;29;20244;-85
2023/07/03 11:51:33;;;;;;;2.42;1.25;;;20.70;68.70;;;;;;4808554;29;20256;-83
2023/07/03 11:54:20;;;;;;;2.78;1.30;;;20.70;68.90;;;;;;4763191;29;20190;-84
2023/07/03 11:56:53;;;;;;;2.05;1.40;;;20.70;68.70;;;;;;4794872;29;20199;-83
2023/07/03 11:59:29;;;;;;;1.98;1.33;;;20.70;68.70;;;;;;4793522;29;20220;-84
2023/07/03 12:02:35;;;;;;;3.38;1.15;;;20.70;68.60;;;;;;4810268;29;20191;-83
2023/07/03 12:05:09;;;;;;;1.75;1.10;;;20.70;68.60;;;;;;4797085;29;20194;-85
2023/07/03 12:07:52;;;;;;;2.25;1.20;;;20.70;68.60;;;;;;4799808;29;20306;-81
2023/07/03 12:10:39;;;;;;;1.48;1.30;;;20.70;69.40;;;;;;4811019;29;20163;-82
2023/07/03 12:13:29;;;;;;;1.83;1.52;;;20.70;68.50;;;;;;4811403;29;20163;-84
2023/07/03 12:16:02;;;;;;;2.35;1.13;;;20.70;68.70;;;;;;4812755;29;20229;-83
2023/07/03 12:18:31;;;;;;;1.50;1.17;;;20.70;68.70;;;;;;4781064;29;20673;-83
2023/07/03 12:21:01;;;;;;;2.35;1.02;;;20.70;68.60;;;;;;4809754;29;20202;-84
2023/07/03 12:23:38;;;;;;;1.35;1.00;;;20.70;68.30;;;;;;4795784;29;20239;-83
2023/07/03 12:26:11;;;;;;;1.45;1.08;;;20.80;68.60;;;;;;4794538;29;20616;-83
2023/07/03 12:28:39;;;;;;;1.25;1.10;;;20.70;68.40;;;;;;4809989;29;20613;-84
2023/07/03 12:31:14;;;;;;;2.45;1.10;;;20.80;68.50;;;;;;4809602;29;20199;-83
2023/07/03 12:33:57;;;;;;;1.27;1.10;;;20.80;68.50;;;;;;4795582;29;20213;-84
2023/07/03 12:36:30;;;;;;;1.30;1.20;;;20.80;68.20;;;;;;4795879;29;20179;-84
2023/07/03 12:38:56;;;;;;;1.98;1.10;;;20.80;68.40;;;;;;4794965;29;20305;-84
2023/07/03 12:41:27;;;;;;;1.90;1.20;;;20.80;68.20;;;;;;4810448;29;20210;-86
2023/07/03 12:43:57;;;;;;;1.63;1.30;;;20.80;68.30;;;;;;4810712;29;20163;-86
2023/07/03 12:46:26;;;;;;;3.20;1.17;;;20.80;68.50;;;;;;4794449;29;20186;-85
2023/07/03 12:49:04;;;;;;;1.90;1.05;;;20.70;68.40;;;;;;4809336;29;20206;-85
2023/07/03 12:51:36;;;;;;;2.05;1.30;;;20.70;68.40;;;;;;4809368;29;20170;-86
2023/07/03 12:54:01;;;;;;;1.13;1.02;;;20.80;68.50;;;;;;4811323;29;20178;-85
2023/07/03 12:56:31;;;;;;;2.47;1.30;;;20.80;68.50;;;;;;4811347;29;20167;-84
2023/07/03 12:59:03;;;;;;;1.30;1.20;;;20.80;68.50;;;;;;4800653;29;20213;-82
2023/07/03 13:01:31;;;;;;;1.58;1.30;;;20.80;68.50;;;;;;4798316;29;20286;-84
2023/07/03 13:03:57;;;;;;;3.22;1.15;;;20.80;68.40;;;;;;4778704;29;20190;-87